Beaver, Iowa
Current Conditions -  °F | °C
As of 8:55 AM on Saturday 01 Nov 2014 (Local Time) from KPRO Reporting Station
Clear Clear  
Wind Chill: 20°   Ceiling: Unl
Heat Index: 26°   Visibility: 10mi
Dew Point: 25°   Wind: 5mph
Humidity: 95%   Direction: 140°SE
Pressure: 30.45"   Gusts: NA
Location:  42.04°N, 94.14°W
Report Text: KPRO 011355Z AUTO 14004KT 10SM CLR M03/M04 A3045 RMK AO2 T10341041
Loading
Personal Weather Stations






























Interactive Weather Map
Tropical Storm Tracking
New forecast layout! Learn more

10-Day Weather Forecast

Advertisements
Track Severe Weather on mobile